sensor_id;sensor_type;location;lat;lon;timestamp;temperature;humidity
65752;DHT22;52486;51.098;13.770;2022-10-19T08:03:26;23.80;64.10
65752;DHT22;52486;51.098;13.770;2022-10-19T08:08:17;23.80;64.50
65752;DHT22;52486;51.098;13.770;2022-10-19T08:10:42;23.80;76.90
65752;DHT22;52486;51.098;13.770;2022-10-19T08:13:08;24.00;76.60
65752;DHT22;52486;51.098;13.770;2022-10-19T08:15:34;24.00;76.40
65752;DHT22;52486;51.098;13.770;2022-10-19T08:17:59;24.10;76.10
65752;DHT22;52486;51.098;13.770;2022-10-19T08:20:25;24.20;76.00
65752;DHT22;52486;51.098;13.770;2022-10-19T08:22:51;24.10;75.80
65752;DHT22;52486;51.098;13.770;2022-10-19T08:25:16;24.00;75.20
65752;DHT22;52486;51.098;13.770;2022-10-19T08:27:42;24.00;74.90
65752;DHT22;52486;51.098;13.770;2022-10-19T08:30:10;24.20;75.10
65752;DHT22;52486;51.098;13.770;2022-10-19T08:32:35;24.10;75.00
65752;DHT22;52486;51.098;13.770;2022-10-19T08:35:01;24.00;74.90
65752;DHT22;52486;51.098;13.770;2022-10-19T08:37:27;24.10;74.80
65752;DHT22;52486;51.098;13.770;2022-10-19T08:39:53;24.10;74.40
65752;DHT22;52486;51.098;13.770;2022-10-19T08:42:27;24.30;74.40
65752;DHT22;52486;51.098;13.770;2022-10-19T08:45:06;24.40;72.50
65752;DHT22;52486;51.098;13.770;2022-10-19T08:50:33;24.10;74.20
65752;DHT22;52486;51.098;13.770;2022-10-19T08:53:04;24.20;72.20
65752;DHT22;52486;51.098;13.770;2022-10-19T09:01:05;24.40;72.10
65752;DHT22;52486;51.098;13.770;2022-10-19T09:03:58;24.40;71.80
65752;DHT22;52486;51.098;13.770;2022-10-19T09:06:50;24.40;71.70
65752;DHT22;52486;51.098;13.770;2022-10-19T09:09:19;24.40;71.30
65752;DHT22;52486;51.098;13.770;2022-10-19T09:11:50;24.30;73.20
65752;DHT22;52486;51.098;13.770;2022-10-19T09:14:26;24.30;73.00
65752;DHT22;52486;51.098;13.770;2022-10-19T09:16:56;24.20;72.90
65752;DHT22;52486;51.098;13.770;2022-10-19T09:19:26;24.40;72.90
65752;DHT22;52486;51.098;13.770;2022-10-19T09:22:15;24.30;72.80
65752;DHT22;52486;51.098;13.770;2022-10-19T09:25:19;24.40;70.90
65752;DHT22;52486;51.098;13.770;2022-10-19T09:27:49;24.20;71.00
65752;DHT22;52486;51.098;13.770;2022-10-19T09:30:19;24.60;72.60
65752;DHT22;52486;51.098;13.770;2022-10-19T09:32:47;24.10;72.30
65752;DHT22;52486;51.098;13.770;2022-10-19T09:35:32;24.40;72.30
65752;DHT22;52486;51.098;13.770;2022-10-19T09:38:00;24.30;72.60
65752;DHT22;52486;51.098;13.770;2022-10-19T09:40:29;24.40;72.20
65752;DHT22;52486;51.098;13.770;2022-10-19T09:42:55;24.40;73.10
65752;DHT22;52486;51.098;13.770;2022-10-19T09:45:42;24.50;74.50
65752;DHT22;52486;51.098;13.770;2022-10-19T09:55:47;24.60;77.90
65752;DHT22;52486;51.098;13.770;2022-10-19T09:58:17;24.40;79.70
65752;DHT22;52486;51.098;13.770;2022-10-19T10:00:48;24.70;79.60
65752;DHT22;52486;51.098;13.770;2022-10-19T10:03:34;24.50;76.80
65752;DHT22;52486;51.098;13.770;2022-10-19T10:06:07;24.80;76.80
65752;DHT22;52486;51.098;13.770;2022-10-19T10:08:36;24.40;78.10
65752;DHT22;52486;51.098;13.770;2022-10-19T10:11:14;24.60;78.20
65752;DHT22;52486;51.098;13.770;2022-10-19T10:13:48;24.60;76.10
65752;DHT22;52486;51.098;13.770;2022-10-19T10:16:15;24.50;77.00
65752;DHT22;52486;51.098;13.770;2022-10-19T10:18:53;24.60;77.60
65752;DHT22;52486;51.098;13.770;2022-10-19T10:21:25;24.70;75.60
65752;DHT22;52486;51.098;13.770;2022-10-19T10:26:43;24.60;77.60
65752;DHT22;52486;51.098;13.770;2022-10-19T10:29:29;24.50;77.30
65752;DHT22;52486;51.098;13.770;2022-10-19T10:32:02;24.60;75.20
65752;DHT22;52486;51.098;13.770;2022-10-19T10:34:55;24.70;76.70
65752;DHT22;52486;51.098;13.770;2022-10-19T10:37:28;24.80;74.60
65752;DHT22;52486;51.098;13.770;2022-10-19T10:39:56;24.70;74.50
65752;DHT22;52486;51.098;13.770;2022-10-19T10:42:33;24.60;76.00
65752;DHT22;52486;51.098;13.770;2022-10-19T10:45:04;24.60;74.40
65752;DHT22;52486;51.098;13.770;2022-10-19T10:47:42;24.70;75.60
65752;DHT22;52486;51.098;13.770;2022-10-19T10:50:22;24.60;74.80
65752;DHT22;52486;51.098;13.770;2022-10-19T10:52:58;24.70;72.70
65752;DHT22;52486;51.098;13.770;2022-10-19T10:55:25;24.60;74.50
65752;DHT22;52486;51.098;13.770;2022-10-19T10:58:03;24.60;74.10
65752;DHT22;52486;51.098;13.770;2022-10-19T11:00:31;24.80;74.30
65752;DHT22;52486;51.098;13.770;2022-10-19T11:03:22;24.80;73.60
65752;DHT22;52486;51.098;13.770;2022-10-19T11:05:55;24.70;71.30
65752;DHT22;52486;51.098;13.770;2022-10-19T11:08:32;24.80;72.70
65752;DHT22;52486;51.098;13.770;2022-10-19T11:11:20;24.80;72.90
65752;DHT22;52486;51.098;13.770;2022-10-19T11:14:19;24.90;71.60
65752;DHT22;52486;51.098;13.770;2022-10-19T11:16:44;24.70;72.00
65752;DHT22;52486;51.098;13.770;2022-10-19T11:27:26;24.60;74.30
65752;DHT22;52486;51.098;13.770;2022-10-19T11:30:14;24.70;72.70
65752;DHT22;52486;51.098;13.770;2022-10-19T11:32:45;24.60;74.60
65752;DHT22;52486;51.098;13.770;2022-10-19T11:38:04;24.90;74.30
65752;DHT22;52486;51.098;13.770;2022-10-19T11:40:34;24.50;74.30
65752;DHT22;52486;51.098;13.770;2022-10-19T11:43:06;24.90;74.30
65752;DHT22;52486;51.098;13.770;2022-10-19T11:45:49;24.70;75.20
65752;DHT22;52486;51.098;13.770;2022-10-19T11:48:28;24.70;73.30
65752;DHT22;52486;51.098;13.770;2022-10-19T11:51:20;24.70;75.20
65752;DHT22;52486;51.098;13.770;2022-10-19T11:54:21;24.70;73.40
65752;DHT22;52486;51.098;13.770;2022-10-19T11:57:29;24.90;73.10
65752;DHT22;52486;51.098;13.770;2022-10-19T12:00:09;24.80;74.90
65752;DHT22;52486;51.098;13.770;2022-10-19T12:09:03;25.00;72.50
65752;DHT22;52486;51.098;13.770;2022-10-19T12:11:41;24.80;72.80
65752;DHT22;52486;51.098;13.770;2022-10-19T12:14:15;24.90;72.40
65752;DHT22;52486;51.098;13.770;2022-10-19T12:16:46;24.50;73.90
65752;DHT22;52486;51.098;13.770;2022-10-19T12:19:18;24.80;73.90
65752;DHT22;52486;51.098;13.770;2022-10-19T12:21:46;24.80;74.40
65752;DHT22;52486;51.098;13.770;2022-10-19T12:24:22;24.90;76.40
65752;DHT22;52486;51.098;13.770;2022-10-19T12:53:21;25.00;69.20
65752;DHT22;52486;51.098;13.770;2022-10-19T12:56:01;25.10;69.00
65752;DHT22;52486;51.098;13.770;2022-10-19T12:58:38;25.00;70.90
65752;DHT22;52486;51.098;13.770;2022-10-19T13:03:43;24.90;70.50
65752;DHT22;52486;51.098;13.770;2022-10-19T13:06:32;24.80;70.30
65752;DHT22;52486;51.098;13.770;2022-10-19T13:09:02;25.00;71.10
65752;DHT22;52486;51.098;13.770;2022-10-19T13:11:29;24.90;70.80
65752;DHT22;52486;51.098;13.770;2022-10-19T13:14:41;24.60;70.80
65752;DHT22;52486;51.098;13.770;2022-10-19T13:16:56;24.90;70.70
65752;DHT22;52486;51.098;13.770;2022-10-19T13:19:22;24.90;71.30
65752;DHT22;52486;51.098;13.770;2022-10-19T13:24:30;25.20;69.20
65752;DHT22;52486;51.098;13.770;2022-10-19T13:38:19;25.00;69.40
65752;DHT22;52486;51.098;13.770;2022-10-19T13:43:24;25.00;71.30
65752;DHT22;52486;51.098;13.770;2022-10-19T13:51:18;25.00;69.90
65752;DHT22;52486;51.098;13.770;2022-10-19T13:56:29;24.80;69.60
65752;DHT22;52486;51.098;13.770;2022-10-19T13:59:15;25.20;71.70
65752;DHT22;52486;51.098;13.770;2022-10-19T14:01:55;25.00;69.70
65752;DHT22;52486;51.098;13.770;2022-10-19T14:04:44;25.00;69.20
65752;DHT22;52486;51.098;13.770;2022-10-19T14:07:20;25.10;69.80
65752;DHT22;52486;51.098;13.770;2022-10-19T14:10:01;24.90;71.40
65752;DHT22;52486;51.098;13.770;2022-10-19T14:12:29;25.00;69.30
65752;DHT22;52486;51.098;13.770;2022-10-19T14:14:55;24.90;71.30
65752;DHT22;52486;51.098;13.770;2022-10-19T14:17:25;24.80;71.20
65752;DHT22;52486;51.098;13.770;2022-10-19T14:19:58;25.00;71.40
65752;DHT22;52486;51.098;13.770;2022-10-19T14:22:31;25.10;71.70
65752;DHT22;52486;51.098;13.770;2022-10-19T14:25:26;24.80;71.50
65752;DHT22;52486;51.098;13.770;2022-10-19T14:27:59;25.00;71.70
65752;DHT22;52486;51.098;13.770;2022-10-19T14:30:30;24.90;71.40
65752;DHT22;52486;51.098;13.770;2022-10-19T14:32:58;24.80;71.30
65752;DHT22;52486;51.098;13.770;2022-10-19T14:35:28;24.90;71.10
65752;DHT22;52486;51.098;13.770;2022-10-19T14:37:54;24.80;71.30
65752;DHT22;52486;51.098;13.770;2022-10-19T14:40:32;25.00;71.90
65752;DHT22;52486;51.098;13.770;2022-10-19T14:42:59;24.80;69.60
65752;DHT22;52486;51.098;13.770;2022-10-19T14:45:30;24.90;71.30
65752;DHT22;52486;51.098;13.770;2022-10-19T14:48:04;25.00;71.80
65752;DHT22;52486;51.098;13.770;2022-10-19T14:50:53;25.10;69.30
65752;DHT22;52486;51.098;13.770;2022-10-19T14:55:47;24.80;71.00
65752;DHT22;52486;51.098;13.770;2022-10-19T14:58:17;24.90;71.10
65752;DHT22;52486;51.098;13.770;2022-10-19T15:00:45;24.80;70.90
65752;DHT22;52486;51.098;13.770;2022-10-19T15:03:19;25.10;70.70
65752;DHT22;52486;51.098;13.770;2022-10-19T15:05:48;25.00;70.20
65752;DHT22;52486;51.098;13.770;2022-10-19T15:08:28;24.80;69.90
65752;DHT22;52486;51.098;13.770;2022-10-19T15:10:54;25.00;70.40
65752;DHT22;52486;51.098;13.770;2022-10-19T15:13:27;24.80;70.20
65752;DHT22;52486;51.098;13.770;2022-10-19T15:15:54;24.80;70.50
65752;DHT22;52486;51.098;13.770;2022-10-19T15:18:24;24.80;70.40
65752;DHT22;52486;51.098;13.770;2022-10-19T15:21:01;24.80;70.50
65752;DHT22;52486;51.098;13.770;2022-10-19T15:23:46;25.10;71.00
65752;DHT22;52486;51.098;13.770;2022-10-19T15:28:51;24.90;69.00
65752;DHT22;52486;51.098;13.770;2022-10-19T15:31:25;24.80;70.50
65752;DHT22;52486;51.098;13.770;2022-10-19T15:33:55;24.90;71.00
65752;DHT22;52486;51.098;13.770;2022-10-19T15:36:22;25.00;70.70
65752;DHT22;52486;51.098;13.770;2022-10-19T15:39:02;24.90;70.80
65752;DHT22;52486;51.098;13.770;2022-10-19T15:41:34;24.90;69.10
65752;DHT22;52486;51.098;13.770;2022-10-19T15:44:00;24.90;71.00
65752;DHT22;52486;51.098;13.770;2022-10-19T15:47:10;24.80;70.70
65752;DHT22;52486;51.098;13.770;2022-10-19T15:52:25;24.80;71.30
65752;DHT22;52486;51.098;13.770;2022-10-19T15:54:56;24.80;71.50
65752;DHT22;52486;51.098;13.770;2022-10-19T15:57:25;24.90;71.20
65752;DHT22;52486;51.098;13.770;2022-10-19T15:59:53;24.80;71.10
65752;DHT22;52486;51.098;13.770;2022-10-19T16:02:20;24.80;71.00
65752;DHT22;52486;51.098;13.770;2022-10-19T16:04:45;24.80;71.10
65752;DHT22;52486;51.098;13.770;2022-10-19T16:07:21;24.80;71.30
65752;DHT22;52486;51.098;13.770;2022-10-19T16:09:48;24.80;71.50
65752;DHT22;52486;51.098;13.770;2022-10-19T16:12:14;24.80;71.90
65752;DHT22;52486;51.098;13.770;2022-10-19T16:14:39;24.70;71.20
65752;DHT22;52486;51.098;13.770;2022-10-19T16:17:05;24.80;71.30
65752;DHT22;52486;51.098;13.770;2022-10-19T16:19:30;24.80;71.30
65752;DHT22;52486;51.098;13.770;2022-10-19T16:21:56;24.70;71.30
65752;DHT22;52486;51.098;13.770;2022-10-19T16:24:21;24.80;71.40
65752;DHT22;52486;51.098;13.770;2022-10-19T16:26:47;24.70;71.30
65752;DHT22;52486;51.098;13.770;2022-10-19T16:29:12;24.90;71.40
65752;DHT22;52486;51.098;13.770;2022-10-19T16:31:38;24.60;71.30
65752;DHT22;52486;51.098;13.770;2022-10-19T16:34:03;24.70;71.40
65752;DHT22;52486;51.098;13.770;2022-10-19T16:36:29;24.80;71.50
65752;DHT22;52486;51.098;13.770;2022-10-19T16:38:54;24.80;71.40
65752;DHT22;52486;51.098;13.770;2022-10-19T16:41:21;24.80;71.50
65752;DHT22;52486;51.098;13.770;2022-10-19T16:43:46;24.70;71.40
65752;DHT22;52486;51.098;13.770;2022-10-19T16:46:13;24.80;71.30
65752;DHT22;52486;51.098;13.770;2022-10-19T16:48:39;24.90;71.50
65752;DHT22;52486;51.098;13.770;2022-10-19T16:53:30;25.00;71.50
65752;DHT22;52486;51.098;13.770;2022-10-19T16:56:03;24.90;71.70
65752;DHT22;52486;51.098;13.770;2022-10-19T16:58:29;24.60;71.70
65752;DHT22;52486;51.098;13.770;2022-10-19T17:00:54;24.90;71.70
65752;DHT22;52486;51.098;13.770;2022-10-19T17:03:21;24.70;71.40
65752;DHT22;52486;51.098;13.770;2022-10-19T17:05:47;24.80;72.50
65752;DHT22;52486;51.098;13.770;2022-10-19T17:08:12;24.70;71.60
65752;DHT22;52486;51.098;13.770;2022-10-19T17:10:38;24.80;71.60
65752;DHT22;52486;51.098;13.770;2022-10-19T17:13:03;24.90;71.70
65752;DHT22;52486;51.098;13.770;2022-10-19T17:15:41;24.80;71.70
65752;DHT22;52486;51.098;13.770;2022-10-19T17:18:06;24.80;72.30
65752;DHT22;52486;51.098;13.770;2022-10-19T17:20:32;24.70;71.70
65752;DHT22;52486;51.098;13.770;2022-10-19T17:22:58;24.70;71.80
65752;DHT22;52486;51.098;13.770;2022-10-19T17:25:23;24.70;71.70
65752;DHT22;52486;51.098;13.770;2022-10-19T17:27:50;24.80;71.70
65752;DHT22;52486;51.098;13.770;2022-10-19T17:30:15;24.80;71.80
65752;DHT22;52486;51.098;13.770;2022-10-19T17:32:41;24.90;71.90
65752;DHT22;52486;51.098;13.770;2022-10-19T17:35:07;24.80;71.90
65752;DHT22;52486;51.098;13.770;2022-10-19T17:37:32;24.70;71.90
65752;DHT22;52486;51.098;13.770;2022-10-19T17:39:58;24.70;71.90
65752;DHT22;52486;51.098;13.770;2022-10-19T17:42:23;24.60;71.80
65752;DHT22;52486;51.098;13.770;2022-10-19T17:44:49;24.80;71.90
65752;DHT22;52486;51.098;13.770;2022-10-19T17:47:14;24.80;71.90
65752;DHT22;52486;51.098;13.770;2022-10-19T17:49:40;24.70;71.90
65752;DHT22;52486;51.098;13.770;2022-10-19T17:52:05;24.80;72.00
65752;DHT22;52486;51.098;13.770;2022-10-19T17:54:31;24.60;71.30
65752;DHT22;52486;51.098;13.770;2022-10-19T17:56:57;24.60;71.90
65752;DHT22;52486;51.098;13.770;2022-10-19T17:59:22;24.80;72.00
65752;DHT22;52486;51.098;13.770;2022-10-19T18:01:48;24.80;72.10
65752;DHT22;52486;51.098;13.770;2022-10-19T18:04:13;24.60;72.00
65752;DHT22;52486;51.098;13.770;2022-10-19T18:06:39;24.70;72.00
65752;DHT22;52486;51.098;13.770;2022-10-19T18:09:07;24.60;72.10
65752;DHT22;52486;51.098;13.770;2022-10-19T18:11:38;24.70;72.10
65752;DHT22;52486;51.098;13.770;2022-10-19T18:14:05;24.70;70.10
65752;DHT22;52486;51.098;13.770;2022-10-19T18:16:34;24.60;72.00
65752;DHT22;52486;51.098;13.770;2022-10-19T18:19:01;24.60;72.00
65752;DHT22;52486;51.098;13.770;2022-10-19T18:21:29;24.80;72.10
65752;DHT22;52486;51.098;13.770;2022-10-19T18:23:57;24.60;72.10
65752;DHT22;52486;51.098;13.770;2022-10-19T18:26:25;24.60;72.10
65752;DHT22;52486;51.098;13.770;2022-10-19T18:28:52;24.60;72.00
65752;DHT22;52486;51.098;13.770;2022-10-19T18:31:24;24.70;72.20
65752;DHT22;52486;51.098;13.770;2022-10-19T18:33:59;24.60;72.20
65752;DHT22;52486;51.098;13.770;2022-10-19T18:36:25;24.50;72.30
65752;DHT22;52486;51.098;13.770;2022-10-19T18:38:52;24.60;72.00
65752;DHT22;52486;51.098;13.770;2022-10-19T18:41:19;25.10;73.10
65752;DHT22;52486;51.098;13.770;2022-10-19T18:43:49;24.50;72.00
65752;DHT22;52486;51.098;13.770;2022-10-19T18:46:17;24.80;72.50
65752;DHT22;52486;51.098;13.770;2022-10-19T18:48:43;24.60;72.10
65752;DHT22;52486;51.098;13.770;2022-10-19T18:51:09;24.50;71.90
65752;DHT22;52486;51.098;13.770;2022-10-19T18:53:35;24.50;72.20
65752;DHT22;52486;51.098;13.770;2022-10-19T18:56:06;24.60;72.30
65752;DHT22;52486;51.098;13.770;2022-10-19T18:58:32;24.60;71.90
65752;DHT22;52486;51.098;13.770;2022-10-19T19:01:22;24.60;72.20
65752;DHT22;52486;51.098;13.770;2022-10-19T19:03:49;24.40;72.40
65752;DHT22;52486;51.098;13.770;2022-10-19T19:06:20;24.40;72.10
65752;DHT22;52486;51.098;13.770;2022-10-19T19:08:46;24.70;72.40
65752;DHT22;52486;51.098;13.770;2022-10-19T19:11:18;24.40;72.10
65752;DHT22;52486;51.098;13.770;2022-10-19T19:13:52;24.60;70.30
65752;DHT22;52486;51.098;13.770;2022-10-19T19:16:18;24.30;72.40
65752;DHT22;52486;51.098;13.770;2022-10-19T19:18:44;24.40;72.10
65752;DHT22;52486;51.098;13.770;2022-10-19T19:21:21;24.40;72.10
65752;DHT22;52486;51.098;13.770;2022-10-19T19:23:47;24.60;70.50
65752;DHT22;52486;51.098;13.770;2022-10-19T19:26:15;24.40;72.20
65752;DHT22;52486;51.098;13.770;2022-10-19T19:28:41;24.40;72.10
65752;DHT22;52486;51.098;13.770;2022-10-19T19:31:07;24.50;72.40
65752;DHT22;52486;51.098;13.770;2022-10-19T19:33:33;24.50;72.20
65752;DHT22;52486;51.098;13.770;2022-10-19T19:35:59;24.50;72.30
65752;DHT22;52486;51.098;13.770;2022-10-19T19:38:29;24.40;72.00
65752;DHT22;52486;51.098;13.770;2022-10-19T19:40:54;24.60;72.40
65752;DHT22;52486;51.098;13.770;2022-10-19T19:43:20;24.50;72.20
65752;DHT22;52486;51.098;13.770;2022-10-19T19:45:55;24.40;72.20
65752;DHT22;52486;51.098;13.770;2022-10-19T19:48:21;24.50;72.40
65752;DHT22;52486;51.098;13.770;2022-10-19T19:50:47;24.70;72.20
65752;DHT22;52486;51.098;13.770;2022-10-19T19:53:12;24.50;72.20
65752;DHT22;52486;51.098;13.770;2022-10-19T19:55:38;24.40;72.10
65752;DHT22;52486;51.098;13.770;2022-10-19T19:58:03;24.40;72.10
65752;DHT22;52486;51.098;13.770;2022-10-19T20:00:29;24.40;72.10
65752;DHT22;52486;51.098;13.770;2022-10-19T20:02:56;24.40;72.20
65752;DHT22;52486;51.098;13.770;2022-10-19T20:05:22;24.40;72.10
65752;DHT22;52486;51.098;13.770;2022-10-19T20:07:48;24.40;72.00
65752;DHT22;52486;51.098;13.770;2022-10-19T20:10:14;24.50;72.20
65752;DHT22;52486;51.098;13.770;2022-10-19T20:12:41;24.50;72.10
65752;DHT22;52486;51.098;13.770;2022-10-19T20:15:07;24.50;72.30
65752;DHT22;52486;51.098;13.770;2022-10-19T20:17:33;24.40;71.50
65752;DHT22;52486;51.098;13.770;2022-10-19T20:19:59;24.50;72.30
65752;DHT22;52486;51.098;13.770;2022-10-19T20:22:24;24.40;72.10
65752;DHT22;52486;51.098;13.770;2022-10-19T20:24:50;24.40;72.20
65752;DHT22;52486;51.098;13.770;2022-10-19T20:27:16;24.40;72.30
65752;DHT22;52486;51.098;13.770;2022-10-19T20:29:41;24.30;72.20
65752;DHT22;52486;51.098;13.770;2022-10-19T20:32:07;24.40;72.30
65752;DHT22;52486;51.098;13.770;2022-10-19T20:34:34;24.30;72.10
65752;DHT22;52486;51.098;13.770;2022-10-19T20:37:00;24.30;72.10
65752;DHT22;52486;51.098;13.770;2022-10-19T20:39:26;24.50;72.30
65752;DHT22;52486;51.098;13.770;2022-10-19T20:41:52;24.40;72.20
65752;DHT22;52486;51.098;13.770;2022-10-19T20:44:17;24.50;72.50
65752;DHT22;52486;51.098;13.770;2022-10-19T20:46:43;24.40;72.30
65752;DHT22;52486;51.098;13.770;2022-10-19T20:49:10;24.40;72.30
65752;DHT22;52486;51.098;13.770;2022-10-19T20:51:36;24.40;72.40
65752;DHT22;52486;51.098;13.770;2022-10-19T20:54:06;24.50;72.40
65752;DHT22;52486;51.098;13.770;2022-10-19T20:56:35;24.40;72.30
65752;DHT22;52486;51.098;13.770;2022-10-19T20:59:04;24.40;72.50
65752;DHT22;52486;51.098;13.770;2022-10-19T21:01:31;24.20;72.40
65752;DHT22;52486;51.098;13.770;2022-10-19T21:04:01;24.40;72.50
65752;DHT22;52486;51.098;13.770;2022-10-19T21:06:29;24.30;72.30
65752;DHT22;52486;51.098;13.770;2022-10-19T21:08:55;24.20;72.40
65752;DHT22;52486;51.098;13.770;2022-10-19T21:11:23;24.40;72.60
65752;DHT22;52486;51.098;13.770;2022-10-19T21:13:53;24.20;72.50
65752;DHT22;52486;51.098;13.770;2022-10-19T21:16:20;24.40;72.80
65752;DHT22;52486;51.098;13.770;2022-10-19T21:18:47;24.40;72.60
65752;DHT22;52486;51.098;13.770;2022-10-19T21:21:19;24.30;72.40
65752;DHT22;52486;51.098;13.770;2022-10-19T21:23:47;24.20;72.70
65752;DHT22;52486;51.098;13.770;2022-10-19T21:26:13;24.20;72.40
65752;DHT22;52486;51.098;13.770;2022-10-19T21:28:39;24.10;72.30
65752;DHT22;52486;51.098;13.770;2022-10-19T21:31:09;24.20;72.40
65752;DHT22;52486;51.098;13.770;2022-10-19T21:33:34;24.30;72.60
65752;DHT22;52486;51.098;13.770;2022-10-19T21:36:05;24.30;72.50
65752;DHT22;52486;51.098;13.770;2022-10-19T21:38:30;24.50;72.80
65752;DHT22;52486;51.098;13.770;2022-10-19T21:40:57;24.20;73.00
65752;DHT22;52486;51.098;13.770;2022-10-19T21:43:23;24.30;72.60
65752;DHT22;52486;51.098;13.770;2022-10-19T21:45:49;24.30;72.70
65752;DHT22;52486;51.098;13.770;2022-10-19T21:48:14;24.20;72.70
65752;DHT22;52486;51.098;13.770;2022-10-19T21:50:40;24.10;72.50
65752;DHT22;52486;51.098;13.770;2022-10-19T21:53:05;24.30;72.70
65752;DHT22;52486;51.098;13.770;2022-10-19T21:55:35;24.50;72.20
65752;DHT22;52486;51.098;13.770;2022-10-19T21:58:00;24.10;72.80
65752;DHT22;52486;51.098;13.770;2022-10-19T22:00:27;24.20;72.50
65752;DHT22;52486;51.098;13.770;2022-10-19T22:02:54;24.30;72.70
65752;DHT22;52486;51.098;13.770;2022-10-19T22:05:19;24.20;72.70
65752;DHT22;52486;51.098;13.770;2022-10-19T22:07:45;24.20;72.60
65752;DHT22;52486;51.098;13.770;2022-10-19T22:10:10;24.20;72.80
65752;DHT22;52486;51.098;13.770;2022-10-19T22:12:36;24.10;72.60
65752;DHT22;52486;51.098;13.770;2022-10-19T22:15:01;24.30;72.80
65752;DHT22;52486;51.098;13.770;2022-10-19T22:17:27;24.10;72.70
65752;DHT22;52486;51.098;13.770;2022-10-19T22:19:52;24.10;72.70
65752;DHT22;52486;51.098;13.770;2022-10-19T22:22:18;24.00;72.70
65752;DHT22;52486;51.098;13.770;2022-10-19T22:24:44;24.10;72.70
65752;DHT22;52486;51.098;13.770;2022-10-19T22:27:09;24.20;72.70
65752;DHT22;52486;51.098;13.770;2022-10-19T22:29:35;24.20;72.80
65752;DHT22;52486;51.098;13.770;2022-10-19T22:32:00;24.20;72.70
65752;DHT22;52486;51.098;13.770;2022-10-19T22:34:26;24.10;72.70
65752;DHT22;52486;51.098;13.770;2022-10-19T22:36:51;24.30;73.00
65752;DHT22;52486;51.098;13.770;2022-10-19T22:39:17;24.10;72.80
65752;DHT22;52486;51.098;13.770;2022-10-19T22:41:42;24.20;72.20
65752;DHT22;52486;51.098;13.770;2022-10-19T22:44:08;24.00;72.90
65752;DHT22;52486;51.098;13.770;2022-10-19T22:46:33;24.20;72.90
65752;DHT22;52486;51.098;13.770;2022-10-19T22:48:59;24.00;72.80
65752;DHT22;52486;51.098;13.770;2022-10-19T22:51:24;24.50;73.10
65752;DHT22;52486;51.098;13.770;2022-10-19T22:53:50;24.10;72.90
65752;DHT22;52486;51.098;13.770;2022-10-19T22:56:16;24.00;72.90
65752;DHT22;52486;51.098;13.770;2022-10-19T22:58:41;24.10;72.80
65752;DHT22;52486;51.098;13.770;2022-10-19T23:01:10;23.90;72.80
65752;DHT22;52486;51.098;13.770;2022-10-19T23:03:36;24.20;73.60
65752;DHT22;52486;51.098;13.770;2022-10-19T23:06:03;24.00;72.80
65752;DHT22;52486;51.098;13.770;2022-10-19T23:08:29;24.00;72.90
65752;DHT22;52486;51.098;13.770;2022-10-19T23:10:55;24.10;73.00
65752;DHT22;52486;51.098;13.770;2022-10-19T23:13:20;24.20;73.00
65752;DHT22;52486;51.098;13.770;2022-10-19T23:15:46;24.00;72.90
65752;DHT22;52486;51.098;13.770;2022-10-19T23:18:12;24.20;73.90
65752;DHT22;52486;51.098;13.770;2022-10-19T23:20:37;24.10;73.20
65752;DHT22;52486;51.098;13.770;2022-10-19T23:23:03;24.00;73.20
65752;DHT22;52486;51.098;13.770;2022-10-19T23:25:29;24.10;73.30
65752;DHT22;52486;51.098;13.770;2022-10-19T23:27:54;24.00;74.00
65752;DHT22;52486;51.098;13.770;2022-10-19T23:30:20;24.00;73.30
65752;DHT22;52486;51.098;13.770;2022-10-19T23:32:45;24.00;73.40
65752;DHT22;52486;51.098;13.770;2022-10-19T23:35:11;24.20;73.60
65752;DHT22;52486;51.098;13.770;2022-10-19T23:37:36;24.00;73.50
65752;DHT22;52486;51.098;13.770;2022-10-19T23:40:02;24.10;73.60
65752;DHT22;52486;51.098;13.770;2022-10-19T23:42:28;24.00;73.40
65752;DHT22;52486;51.098;13.770;2022-10-19T23:44:53;24.10;73.80
65752;DHT22;52486;51.098;13.770;2022-10-19T23:47:19;24.00;74.00
65752;DHT22;52486;51.098;13.770;2022-10-19T23:49:45;24.00;74.00
65752;DHT22;52486;51.098;13.770;2022-10-19T23:52:10;24.00;74.10
65752;DHT22;52486;51.098;13.770;2022-10-19T23:54:36;24.00;74.20
65752;DHT22;52486;51.098;13.770;2022-10-19T23:57:01;24.00;74.30
65752;DHT22;52486;51.098;13.770;2022-10-19T23:59:27;23.90;74.20
